createdAt,value
2023-02-03T00:00:08.455Z,8.95
2023-02-03T00:05:07.073Z,9.32
2023-02-03T00:07:36.080Z,8.15
2023-02-03T00:10:04.084Z,9.73
2023-02-03T00:12:31.470Z,9.65
2023-02-03T00:14:58.661Z,8.27
2023-02-03T00:17:25.853Z,8.57
2023-02-03T00:19:53.072Z,8.95
2023-02-03T00:22:20.345Z,9.55
2023-02-03T00:24:48.617Z,9.25
2023-02-03T00:27:15.813Z,9.50
2023-02-03T00:29:43.062Z,9.65
2023-02-03T00:32:10.337Z,9.07
2023-02-03T00:34:37.644Z,9.75
2023-02-03T00:37:04.958Z,9.35
2023-02-03T00:39:32.155Z,10.10
2023-02-03T00:41:59.324Z,8.80
2023-02-03T00:44:26.529Z,9.68
2023-02-03T00:46:53.684Z,9.45
2023-02-03T00:49:20.870Z,9.25
2023-02-03T00:51:48.136Z,9.13
2023-02-03T00:54:15.596Z,9.30
2023-02-03T00:56:43.053Z,8.68
2023-02-03T00:59:10.452Z,8.68
2023-02-03T01:01:37.986Z,8.88
2023-02-03T01:04:05.594Z,9.98
2023-02-03T01:06:34.422Z,9.75
2023-02-03T01:09:04.462Z,9.70
2023-02-03T01:11:33.192Z,9.32
2023-02-03T01:16:31.309Z,8.75
2023-02-03T01:18:58.681Z,9.23
2023-02-03T01:21:29.391Z,9.90
2023-02-03T01:23:59.745Z,9.25
2023-02-03T01:26:30.010Z,9.50
2023-02-03T01:29:00.235Z,9.52
2023-02-03T01:31:42.419Z,9.57
2023-02-03T01:34:16.432Z,9.43
2023-02-03T01:36:44.106Z,9.55
2023-02-03T01:39:11.598Z,9.38
2023-02-03T01:41:40.096Z,9.23
2023-02-03T01:44:46.002Z,9.43
2023-02-03T01:47:23.602Z,9.30
2023-02-03T01:50:20.442Z,9.57
2023-02-03T01:52:58.988Z,10.50
2023-02-03T01:55:41.448Z,11.13
2023-02-03T01:58:23.622Z,9.18
2023-02-03T02:00:54.534Z,11.07
2023-02-03T02:03:32.447Z,9.50
2023-02-03T02:06:08.084Z,9.18
2023-02-03T02:08:37.646Z,9.77
2023-02-03T02:11:06.045Z,9.63
2023-02-03T02:13:37.468Z,9.63
2023-02-03T02:16:39.982Z,11.50
2023-02-03T02:19:35.900Z,8.95
2023-02-03T02:22:22.671Z,9.13
2023-02-03T02:25:38.491Z,9.00
2023-02-03T02:28:29.787Z,8.70
2023-02-03T02:31:44.269Z,10.23
2023-02-03T02:34:49.410Z,10.40
2023-02-03T02:38:03.805Z,12.50
2023-02-03T02:41:05.334Z,14.40
2023-02-03T02:43:46.150Z,13.68
2023-02-03T02:46:26.530Z,12.48
2023-02-03T02:49:31.906Z,12.10
2023-02-03T02:52:07.235Z,12.25
2023-02-03T02:54:40.717Z,12.55
2023-02-03T02:57:13.528Z,12.27
2023-02-03T02:59:40.833Z,11.50
2023-02-03T03:02:11.887Z,12.45
2023-02-03T03:04:42.499Z,14.32
2023-02-03T03:07:26.465Z,12.82
2023-02-03T03:10:06.535Z,10.93
2023-02-03T03:12:50.041Z,12.38
2023-02-03T03:15:25.713Z,10.65
2023-02-03T03:18:25.575Z,12.27
2023-02-03T03:21:05.920Z,11.55
2023-02-03T03:23:43.062Z,12.27
2023-02-03T03:26:44.726Z,11.45
2023-02-03T03:29:51.136Z,10.50
2023-02-03T03:32:18.599Z,11.93
2023-02-03T03:34:46.107Z,10.35
2023-02-03T03:37:36.487Z,11.55
2023-02-03T03:40:21.971Z,11.40
2023-02-03T03:43:02.992Z,11.63
2023-02-03T03:48:57.951Z,9.38
2023-02-03T03:51:44.206Z,11.18
2023-02-03T03:54:20.449Z,9.27
2023-02-03T03:57:15.298Z,11.80
2023-02-03T03:59:51.078Z,11.20
2023-02-03T04:02:24.266Z,10.43
2023-02-03T04:04:52.024Z,9.73
2023-02-03T04:07:20.257Z,11.95
2023-02-03T04:09:47.578Z,13.68
2023-02-03T04:12:25.995Z,10.82
2023-02-03T04:14:53.403Z,10.40
2023-02-03T04:17:20.730Z,11.77
2023-02-03T04:19:49.159Z,10.48
2023-02-03T04:22:16.381Z,11.40
2023-02-03T04:24:46.818Z,11.80
2023-02-03T04:27:14.086Z,10.43
2023-02-03T04:29:41.312Z,11.43
2023-02-03T04:32:08.660Z,10.88
2023-02-03T04:34:35.997Z,10.23
2023-02-03T04:37:03.216Z,10.55
2023-02-03T04:39:30.481Z,9.80
2023-02-03T04:41:57.744Z,9.57
2023-02-03T04:44:26.160Z,11.32
2023-02-03T04:46:53.520Z,9.95
2023-02-03T04:49:21.156Z,9.60
2023-02-03T04:51:52.164Z,10.43
2023-02-03T04:54:19.415Z,8.73
2023-02-03T04:56:46.652Z,10.63
2023-02-03T04:59:13.947Z,10.45
2023-02-03T05:01:44.927Z,10.15
2023-02-03T05:04:12.300Z,9.68
2023-02-03T05:06:39.774Z,12.38
2023-02-03T05:09:07.109Z,11.57
2023-02-03T05:11:34.432Z,10.55
2023-02-03T05:14:01.636Z,10.68
2023-02-03T05:16:31.435Z,10.20
2023-02-03T05:18:58.826Z,9.05
2023-02-03T05:21:27.317Z,9.52
2023-02-03T05:23:54.655Z,8.77
2023-02-03T05:26:21.945Z,10.68
2023-02-03T05:28:50.563Z,11.05
2023-02-03T05:31:20.585Z,10.32
2023-02-03T05:33:47.940Z,10.90
2023-02-03T05:36:15.144Z,10.80
2023-02-03T05:38:45.513Z,9.75
2023-02-03T05:41:33.158Z,9.70
2023-02-03T05:44:00.655Z,9.75
2023-02-03T05:46:27.933Z,10.57
2023-02-03T05:48:55.131Z,9.90
2023-02-03T05:51:22.437Z,10.15
2023-02-03T05:53:49.607Z,10.23
2023-02-03T05:56:17.509Z,9.57
2023-02-03T05:58:44.773Z,8.95
2023-02-03T06:01:12.016Z,9.23
2023-02-03T06:03:44.477Z,9.05
2023-02-03T06:06:15.357Z,9.77
2023-02-03T06:08:43.956Z,7.70
2023-02-03T06:11:12.303Z,8.95
2023-02-03T06:13:39.758Z,9.80
2023-02-03T06:16:11.453Z,10.55
2023-02-03T06:18:48.965Z,9.13
2023-02-03T06:21:16.861Z,8.30
2023-02-03T06:24:19.598Z,8.35
2023-02-03T06:27:00.505Z,8.35
2023-02-03T06:32:31.064Z,8.15
2023-02-03T06:35:00.792Z,7.88
2023-02-03T06:37:36.363Z,8.15
2023-02-03T06:41:16.183Z,9.07
2023-02-03T06:43:38.224Z,8.70
2023-02-03T06:46:22.717Z,8.07
2023-02-03T06:49:05.283Z,7.88
2023-02-03T06:51:48.761Z,9.65
2023-02-03T06:54:40.998Z,8.50
2023-02-03T06:57:17.841Z,8.88
2023-02-03T06:59:52.896Z,8.55
2023-02-03T07:02:25.909Z,9.23
2023-02-03T07:05:37.457Z,8.25
2023-02-03T07:08:22.680Z,8.88
2023-02-03T07:11:19.373Z,10.20
2023-02-03T07:13:50.019Z,8.77
2023-02-03T07:16:48.586Z,7.85
2023-02-03T07:19:34.350Z,8.70
2023-02-03T07:22:18.798Z,8.65
2023-02-03T07:25:04.043Z,8.63
2023-02-03T07:27:50.120Z,9.48
2023-02-03T07:30:41.783Z,9.13
2023-02-03T07:33:13.541Z,7.45
2023-02-03T07:36:09.272Z,7.95
2023-02-03T07:39:31.346Z,8.85
2023-02-03T07:41:38.864Z,9.23
2023-02-03T07:44:09.772Z,11.15
2023-02-03T07:46:47.432Z,12.10
2023-02-03T07:49:36.412Z,10.10
2023-02-03T07:52:22.117Z,12.13
2023-02-03T07:55:07.563Z,13.73
2023-02-03T07:57:56.691Z,13.35
2023-02-03T08:00:29.924Z,12.23
2023-02-03T08:03:17.712Z,13.85
2023-02-03T08:05:48.418Z,12.15
2023-02-03T08:08:18.894Z,10.10
2023-02-03T08:10:49.393Z,10.68
2023-02-03T08:13:23.249Z,10.57
2023-02-03T08:15:51.889Z,9.80
2023-02-03T08:20:57.131Z,9.85
2023-02-03T08:23:27.216Z,11.75
2023-02-03T08:26:03.715Z,10.57
2023-02-03T08:28:34.709Z,12.45
2023-02-03T08:31:13.931Z,12.18
2023-02-03T08:33:41.741Z,10.90
2023-02-03T08:36:13.390Z,11.95
2023-02-03T08:38:44.000Z,11.95
2023-02-03T08:41:18.553Z,12.05
2023-02-03T08:43:46.443Z,12.57
2023-02-03T08:46:15.419Z,13.15
2023-02-03T08:48:45.794Z,13.15
2023-02-03T08:51:30.231Z,14.23
2023-02-03T08:54:08.481Z,15.13
2023-02-03T08:56:46.075Z,12.27
2023-02-03T08:59:15.515Z,13.05
2023-02-03T09:01:48.597Z,14.57
2023-02-03T09:04:24.883Z,12.93
2023-02-03T09:06:58.231Z,14.52
2023-02-03T09:09:30.552Z,14.02
2023-02-03T09:12:05.498Z,15.35
2023-02-03T09:14:34.495Z,14.35
2023-02-03T09:17:09.225Z,15.27
2023-02-03T09:19:39.593Z,14.40
2023-02-03T09:22:07.786Z,14.38
2023-02-03T09:24:36.346Z,15.68
2023-02-03T09:27:04.117Z,14.65
2023-02-03T09:29:31.955Z,15.50
2023-02-03T09:34:51.510Z,15.50
2023-02-03T09:37:19.205Z,14.85
2023-02-03T09:39:48.883Z,16.15
2023-02-03T09:42:41.121Z,17.17
2023-02-03T09:45:34.667Z,14.30
2023-02-03T09:48:22.097Z,17.20
2023-02-03T09:50:54.646Z,16.13
2023-02-03T09:53:29.479Z,17.40
2023-02-03T09:58:34.873Z,16.08
2023-02-03T10:01:11.479Z,17.10
2023-02-03T10:03:57.416Z,18.77
2023-02-03T10:06:47.290Z,19.45
2023-02-03T10:09:33.323Z,16.95
2023-02-03T10:12:30.781Z,17.45
2023-02-03T10:16:25.428Z,17.23
2023-02-03T10:18:57.304Z,16.00
2023-02-03T10:21:42.680Z,19.30
2023-02-03T10:24:39.740Z,14.50
2023-02-03T10:27:25.219Z,19.75
2023-02-03T10:30:09.539Z,19.25
2023-02-03T10:32:39.522Z,18.35
2023-02-03T10:35:15.581Z,18.75
2023-02-03T10:37:55.771Z,18.15
2023-02-03T10:40:29.195Z,19.33
2023-02-03T10:43:15.802Z,17.77
2023-02-03T10:45:43.693Z,19.88
2023-02-03T10:48:23.395Z,17.08
2023-02-03T10:51:05.820Z,17.45
2023-02-03T10:53:36.896Z,18.30
2023-02-03T10:56:13.811Z,21.05
2023-02-03T10:59:00.017Z,17.10
2023-02-03T11:01:40.920Z,17.45
2023-02-03T11:04:37.561Z,18.17
2023-02-03T11:07:29.798Z,16.42
2023-02-03T11:14:22.283Z,15.38
2023-02-03T11:16:49.591Z,17.00
2023-02-03T11:19:23.625Z,15.35
2023-02-03T11:21:58.022Z,18.98
2023-02-03T11:24:41.186Z,16.83
2023-02-03T11:27:20.956Z,17.52
2023-02-03T11:29:55.244Z,16.83
2023-02-03T11:32:47.200Z,18.42
2023-02-03T11:35:32.940Z,21.27
2023-02-03T11:38:57.311Z,16.88
2023-02-03T11:41:37.588Z,17.23
2023-02-03T11:44:35.967Z,18.23
2023-02-03T11:47:11.871Z,18.10
2023-02-03T11:50:15.251Z,18.75
2023-02-03T11:54:24.862Z,16.20
2023-02-03T11:57:58.314Z,16.45
2023-02-03T12:00:35.718Z,15.52
2023-02-03T12:04:07.685Z,17.80
2023-02-03T12:07:05.817Z,18.27
2023-02-03T12:10:14.017Z,18.45
2023-02-03T12:13:10.199Z,17.30
2023-02-03T12:16:22.535Z,17.70
2023-02-03T12:19:30.625Z,17.92
2023-02-03T12:22:48.458Z,17.38
2023-02-03T12:26:08.026Z,17.40
2023-02-03T12:29:56.458Z,16.75
2023-02-03T12:32:46.893Z,16.60
2023-02-03T12:35:32.064Z,17.65
2023-02-03T12:38:14.746Z,17.98
2023-02-03T12:41:02.651Z,17.85
2023-02-03T12:44:04.663Z,16.50
2023-02-03T12:49:14.517Z,18.40
2023-02-03T12:51:10.507Z,17.30
2023-02-03T12:54:07.915Z,14.55
2023-02-03T12:56:47.045Z,13.38
2023-02-03T13:00:06.453Z,12.45
2023-02-03T13:03:31.687Z,6.45
2023-02-03T13:06:44.030Z,6.28
2023-02-03T13:09:59.604Z,5.72
2023-02-03T13:12:49.288Z,7.25
2023-02-03T13:15:44.541Z,6.03
2023-02-03T13:18:45.520Z,5.13
2023-02-03T13:21:19.436Z,6.45
2023-02-03T13:23:51.742Z,6.50
2023-02-03T13:26:33.453Z,6.75
2023-02-03T13:30:06.740Z,6.65
2023-02-03T13:33:32.114Z,6.47
2023-02-03T13:36:40.638Z,5.88
2023-02-03T13:39:57.366Z,7.00
2023-02-03T13:42:48.087Z,7.15
2023-02-03T13:45:44.346Z,8.65
2023-02-03T13:48:31.418Z,8.15
2023-02-03T13:51:20.252Z,9.10
2023-02-03T13:53:50.082Z,8.43
2023-02-03T13:56:34.486Z,9.18
2023-02-03T13:59:45.101Z,7.72
2023-02-03T14:02:22.036Z,7.45
2023-02-03T14:04:55.685Z,7.60
2023-02-03T14:07:42.216Z,8.23
2023-02-03T14:10:29.777Z,7.88
2023-02-03T14:13:03.756Z,7.70
2023-02-03T14:15:45.000Z,8.32
2023-02-03T14:18:59.117Z,7.00
2023-02-03T14:21:48.687Z,7.82
2023-02-03T14:24:56.759Z,8.50
2023-02-03T14:27:33.738Z,8.95
2023-02-03T14:30:26.091Z,8.43
2023-02-03T14:35:42.435Z,7.95
2023-02-03T14:38:26.792Z,8.23
2023-02-03T14:41:06.001Z,7.88
2023-02-03T14:43:50.972Z,7.55
2023-02-03T14:46:38.152Z,8.40
2023-02-03T14:49:46.934Z,7.38
2023-02-03T14:53:24.324Z,7.97
2023-02-03T14:57:02.715Z,7.97
2023-02-03T15:00:05.593Z,10.10
2023-02-03T15:05:43.740Z,8.07
2023-02-03T15:08:43.856Z,7.88
2023-02-03T15:11:33.548Z,8.55
2023-02-03T15:14:23.844Z,8.00
2023-02-03T15:17:05.341Z,8.70
2023-02-03T15:19:42.122Z,6.80
2023-02-03T15:22:26.419Z,6.60
2023-02-03T15:25:04.251Z,6.53
2023-02-03T15:27:33.196Z,6.15
2023-02-03T15:30:31.984Z,6.00
2023-02-03T15:33:21.408Z,6.05
2023-02-03T15:36:04.646Z,5.82
2023-02-03T15:38:57.439Z,5.95
2023-02-03T15:41:39.774Z,6.30
2023-02-03T15:44:56.211Z,5.63
2023-02-03T15:48:07.709Z,5.75
2023-02-03T15:50:43.281Z,5.85
2023-02-03T15:53:46.911Z,6.10
2023-02-03T15:56:37.914Z,6.22
2023-02-03T15:59:45.290Z,6.47
2023-02-03T16:02:40.484Z,5.50
2023-02-03T16:05:33.688Z,7.63
2023-02-03T16:08:44.194Z,5.90
2023-02-03T16:11:34.556Z,5.60
2023-02-03T16:14:10.482Z,5.65
2023-02-03T16:17:04.821Z,6.00
2023-02-03T16:19:43.674Z,5.80
2023-02-03T16:22:36.233Z,6.78
2023-02-03T16:25:24.375Z,5.55
2023-02-03T16:28:31.821Z,8.73
2023-02-03T16:31:35.646Z,8.02
2023-02-03T16:34:38.116Z,6.13
2023-02-03T16:37:43.313Z,6.60
2023-02-03T16:43:30.858Z,5.90
2023-02-03T16:46:22.326Z,6.57
2023-02-03T16:49:10.462Z,6.15
2023-02-03T16:51:42.342Z,6.55
2023-02-03T16:54:18.279Z,6.18
2023-02-03T16:56:47.992Z,7.75
2023-02-03T16:59:30.540Z,7.97
2023-02-03T17:02:15.226Z,6.78
2023-02-03T17:04:45.323Z,9.07
2023-02-03T17:07:15.904Z,8.52
2023-02-03T17:09:54.600Z,9.02
2023-02-03T17:12:39.520Z,7.90
2023-02-03T17:15:12.210Z,8.30
2023-02-03T17:17:41.960Z,7.10
2023-02-03T17:20:59.007Z,8.50
2023-02-03T17:23:00.222Z,7.15
2023-02-03T17:25:30.248Z,8.93
2023-02-03T17:28:00.233Z,8.38
2023-02-03T17:30:39.385Z,7.95
2023-02-03T17:33:13.301Z,7.82
2023-02-03T17:35:45.596Z,7.75
2023-02-03T17:38:16.962Z,8.50
2023-02-03T17:54:39.590Z,9.35
2023-02-03T17:57:07.329Z,10.82
2023-02-03T17:59:39.787Z,8.75
2023-02-03T18:02:11.367Z,8.77
2023-02-03T18:04:56.639Z,8.70
2023-02-03T18:10:21.161Z,8.48
2023-02-03T18:13:21.243Z,8.73
2023-02-03T18:15:57.632Z,9.35
2023-02-03T18:18:36.657Z,9.13
2023-02-03T18:21:25.862Z,8.77
2023-02-03T18:24:10.293Z,8.25
2023-02-03T18:26:54.442Z,8.35
2023-02-03T18:29:28.752Z,10.52
2023-02-03T18:32:01.018Z,10.00
2023-02-03T18:34:51.700Z,10.98
2023-02-03T18:37:23.432Z,10.57
2023-02-03T18:40:10.905Z,10.30
2023-02-03T18:42:44.337Z,8.82
2023-02-03T18:45:16.366Z,10.43
2023-02-03T18:47:43.966Z,8.60
2023-02-03T18:50:11.560Z,8.38
2023-02-03T18:52:42.556Z,8.07
2023-02-03T18:55:16.042Z,8.93
2023-02-03T18:57:54.351Z,7.47
2023-02-03T19:00:49.735Z,8.10
2023-02-03T19:03:27.803Z,6.85
2023-02-03T19:06:14.265Z,6.97
2023-02-03T19:09:02.887Z,5.85
2023-02-03T19:11:35.948Z,5.72
2023-02-03T19:14:17.761Z,7.53
2023-02-03T19:16:45.533Z,8.20
2023-02-03T19:19:36.070Z,8.18
2023-02-03T19:22:03.569Z,7.65
2023-02-03T19:24:30.980Z,7.95
2023-02-03T19:27:07.069Z,7.90
2023-02-03T19:29:51.868Z,6.97
2023-02-03T19:32:23.840Z,6.53
2023-02-03T19:34:51.155Z,5.68
2023-02-03T19:37:21.206Z,4.90
2023-02-03T19:39:57.905Z,4.57
2023-02-03T19:42:35.924Z,4.13
2023-02-03T19:45:05.255Z,4.68
2023-02-03T19:47:35.499Z,4.40
2023-02-03T19:50:06.636Z,3.78
2023-02-03T19:52:58.617Z,3.78
2023-02-03T19:56:09.823Z,4.30
2023-02-03T19:58:38.624Z,5.85
2023-02-03T20:01:38.346Z,4.13
2023-02-03T20:04:13.808Z,5.07
2023-02-03T20:06:52.437Z,4.85
2023-02-03T20:09:22.688Z,4.78
2023-02-03T20:11:54.101Z,4.50
2023-02-03T20:17:03.393Z,3.72
2023-02-03T20:19:43.909Z,4.22
2023-02-03T20:22:11.450Z,3.80
2023-02-03T20:24:47.027Z,4.18
2023-02-03T20:27:14.334Z,4.00
2023-02-03T20:29:41.622Z,3.78
2023-02-03T20:32:13.897Z,3.90
2023-02-03T20:34:46.907Z,4.13
2023-02-03T20:37:14.158Z,4.03
2023-02-03T20:39:41.661Z,4.30
2023-02-03T20:42:17.841Z,4.25
2023-02-03T20:44:45.849Z,3.55
2023-02-03T20:47:22.175Z,3.88
2023-02-03T20:49:52.535Z,3.67
2023-02-03T20:52:26.086Z,4.05
2023-02-03T20:54:56.144Z,4.18
2023-02-03T20:57:26.163Z,2.95
2023-02-03T21:01:32.046Z,4.05
2023-02-03T21:03:37.225Z,4.13
2023-02-03T21:06:20.010Z,4.47
2023-02-03T21:08:48.584Z,4.03
2023-02-03T21:13:50.870Z,4.50
2023-02-03T21:16:27.581Z,4.82
2023-02-03T21:19:02.619Z,4.72
2023-02-03T21:21:42.293Z,4.72
2023-02-03T21:24:35.556Z,5.28
2023-02-03T21:27:18.853Z,4.72
2023-02-03T21:29:51.923Z,5.10
2023-02-03T21:32:19.374Z,5.30
2023-02-03T21:34:47.906Z,4.88
2023-02-03T21:37:21.232Z,5.20
2023-02-03T21:39:52.672Z,6.13
2023-02-03T21:42:42.099Z,5.28
2023-02-03T21:45:17.871Z,5.30
2023-02-03T21:47:48.214Z,5.32
2023-02-03T21:50:36.791Z,6.72
2023-02-03T21:53:12.791Z,5.85
2023-02-03T21:55:42.677Z,6.40
2023-02-03T21:58:12.183Z,5.53
2023-02-03T22:00:48.022Z,5.95
2023-02-03T22:03:37.572Z,5.63
2023-02-03T22:06:23.871Z,5.43
2023-02-03T22:08:59.092Z,5.68
2023-02-03T22:11:29.865Z,5.22
2023-02-03T22:13:57.835Z,7.70
2023-02-03T22:16:25.925Z,8.43
2023-02-03T22:18:53.424Z,5.97
2023-02-03T22:21:23.206Z,4.80
2023-02-03T22:23:54.004Z,6.45
2023-02-03T22:26:22.083Z,5.63
2023-02-03T22:28:49.938Z,6.07
2023-02-03T22:31:19.865Z,4.90
2023-02-03T22:33:47.710Z,5.03
2023-02-03T22:36:17.231Z,4.70
2023-02-03T22:38:46.877Z,4.72
2023-02-03T22:41:14.210Z,4.47
2023-02-03T22:43:43.746Z,5.10
2023-02-03T22:46:11.723Z,5.75
2023-02-03T22:48:39.101Z,5.20
2023-02-03T22:51:06.541Z,5.22
2023-02-03T22:53:34.839Z,4.05
2023-02-03T22:56:02.136Z,4.03
2023-02-03T22:58:29.412Z,4.75
2023-02-03T23:00:56.795Z,4.25
2023-02-03T23:03:24.214Z,3.35
2023-02-03T23:05:53.891Z,4.13
2023-02-03T23:08:22.395Z,3.72
2023-02-03T23:10:49.752Z,5.30
2023-02-03T23:13:17.190Z,4.05
2023-02-03T23:15:44.468Z,3.63
2023-02-03T23:18:11.702Z,3.70
2023-02-03T23:20:39.189Z,3.10
2023-02-03T23:23:06.935Z,3.15
2023-02-03T23:25:34.229Z,3.28
2023-02-03T23:28:01.548Z,3.53
2023-02-03T23:30:32.235Z,3.42
2023-02-03T23:32:59.660Z,4.50
2023-02-03T23:35:45.516Z,3.42
2023-02-03T23:38:17.467Z,3.90
2023-02-03T23:40:45.637Z,3.75
2023-02-03T23:43:13.184Z,3.97
2023-02-03T23:45:40.983Z,3.20
2023-02-03T23:48:09.352Z,4.47
2023-02-03T23:50:37.002Z,3.65
2023-02-03T23:53:04.983Z,3.50
2023-02-03T23:55:32.277Z,3.53
2023-02-03T23:58:01.811Z,3.38
